Hickory Withe, Tennessee
Current Conditions -  °F | °C
As of 11:50 AM on Friday 24 Oct 2014 (Local Time) from KNQA Reporting Station
Few Clouds Few Clouds  
Wind Chill: 70°   Ceiling: Unl
Heat Index: 70°   Visibility: 10mi
Dew Point: 52°   Wind: 5mph
Humidity: 53%   Direction: NA
Pressure: 30.14"   Gusts: NA
Location:  35.24°N, 89.59°W
Report Text: KNQA 241650Z VRB04KT 10SM FEW250 21/11 A3014
Loading
Personal Weather Stations






























Interactive Weather Map
Tropical Storm Tracking
New forecast layout! Learn more

10-Day Weather Forecast

Advertisements
Track Severe Weather on mobile